No particular awareness of the weather is required.    There are no Weather-warnings


Meteo18 Weather Cam more information Meteo18 Weather Cam


Thunder radar more information blitzortung!


Rain radar more information rain snow radar


Visit our other weather sites:

Template documentation
and downloads

And another site



Weather Underground History page Text

Daily Summary for March 17, 2017 Units:  English    Metric   Both
« Previous Day
Next Day »
Daily Weekly Monthly Yearly Custom
  High: Low: Average:
Temperature: TemperatureC °F 4.7 °F 8.5 °F
Dew Point: DewpointC °F 3.7 °F 6.6 °F
Humidity: Humidity % 78 % 87 %
Wind Speed: WindSpeedKMH mph 0.0 mph 2.6 mph
Wind Gust: WindSpeedGustKMH mph - -
Wind:- - West
Pressure: PressurehPa in 1019.5 in -
Precipitation: 0.0 in    
Historical Graphs
 
 
Tabular Data for March 17, 2017
Time Temperature Dew Point Pressure Wind Wind Speed Wind Gust Humidity Rainfall Rate (Hourly)
TemperatureC °F DewpointC °F PressurehPa in Calm     Humidity % HourlyPrecipMM in
00:02 10.6 °F 7.3 °F 1020.5 in Calm   1.6 mph 80 % 0.0 in
00:07 10.8 °F 7.1 °F 1020.5 in Calm   1.6 mph 78 % 0.0 in
00:12 10.6 °F 7.1 °F 1020.5 in Calm   1.6 mph 79 % 0.0 in
00:22 10.1 °F 6.8 °F 1020.5 in Calm     80 % 0.0 in
00:32 10.0 °F 6.9 °F 1020.2 in Calm   1.6 mph 81 % 0.0 in
00:42 10.1 °F 7.0 °F 1020.2 in Calm   1.6 mph 81 % 0.0 in
00:52 9.9 °F 7.0 °F 1020.2 in Calm   1.6 mph 82 % 0.0 in
00:57 9.9 °F 7.0 °F 1020.2 in Calm   1.6 mph 82 % 0.0 in
01:02 9.8 °F 6.9 °F 1020.2 in Calm   1.6 mph 82 % 0.0 in
01:12 9.6 °F 6.7 °F 1020.2 in Calm   1.6 mph 82 % 0.0 in
01:17 9.4 °F 6.7 °F 1020.2 in Calm   1.6 mph 83 % 0.0 in
01:22 9.4 °F 6.7 °F 1020.2 in Calm     83 % 0.0 in
01:27 9.3 °F 6.6 °F 1020.2 in Calm     83 % 0.0 in
01:32 9.1 °F 6.4 °F 1020.2 in Calm     83 % 0.0 in
01:42 9.1 °F 6.7 °F 1020.2 in Calm     85 % 0.0 in
01:52 9.6 °F 7.0 °F 1019.9 in Calm     84 % 0.0 in
01:57 9.4 °F 6.7 °F 1019.9 in Calm     83 % 0.0 in
02:02 9.4 °F 6.7 °F 1019.9 in Calm     83 % 0.0 in
02:07 9.3 °F 6.6 °F 1019.9 in Calm     83 % 0.0 in
02:12 9.2 °F 6.5 °F 1019.9 in Calm     83 % 0.0 in
02:17 8.8 °F 6.6 °F 1019.9 in Calm   1.6 mph 86 % 0.0 in
02:22 8.9 °F 6.5 °F 1019.9 in Calm   1.6 mph 85 % 0.0 in
02:27 8.9 °F 6.5 °F 1019.9 in Calm   1.6 mph 85 % 0.0 in
02:32 8.9 °F 6.5 °F 1019.9 in Calm   1.6 mph 85 % 0.0 in
02:37 8.8 °F 6.6 °F 1019.9 in Calm   1.6 mph 86 % 0.0 in
02:42 9.1 °F 6.9 °F 1019.9 in Calm   1.6 mph 86 % 0.0 in
02:47 8.9 °F 6.5 °F 1019.9 in Calm   1.6 mph 85 % 0.0 in
02:52 8.9 °F 6.7 °F 1019.9 in Calm   1.6 mph 86 % 0.0 in
02:57 8.9 °F 6.5 °F 1019.9 in Calm   1.6 mph 85 % 0.0 in
03:02 8.7 °F 6.3 °F 1019.9 in Calm   1.6 mph 85 % 0.0 in
03:07 8.4 °F 6.0 °F 1019.9 in Calm     85 % 0.0 in
03:12 8.2 °F 6.2 °F 1019.9 in Calm     87 % 0.0 in
03:17 8.2 °F 6.2 °F 1019.5 in Calm     87 % 0.0 in
03:22 7.9 °F 5.9 °F 1019.5 in Calm     87 % 0.0 in
03:27 7.6 °F 5.6 °F 1019.5 in Calm     87 % 0.0 in
03:32 7.2 °F 5.3 °F 1019.5 in Calm   1.6 mph 88 % 0.0 in
03:37 7.1 °F 5.4 °F 1019.9 in Calm   1.6 mph 89 % 0.0 in
03:42 6.9 °F 5.4 °F 1019.9 in Calm   1.6 mph 90 % 0.0 in
03:47 7.1 °F 5.7 °F 1019.9 in Calm     91 % 0.0 in
03:52 7.3 °F 5.9 °F 1019.9 in Calm     91 % 0.0 in
03:57 7.5 °F 6.1 °F 1019.9 in Calm     91 % 0.0 in
04:02 7.8 °F 6.4 °F 1019.5 in Calm   1.6 mph 91 % 0.0 in
04:07 7.7 °F 6.0 °F 1019.9 in Calm   1.6 mph 89 % 0.0 in
04:12 7.3 °F 5.4 °F 1019.9 in Calm   1.6 mph 88 % 0.0 in
04:17 7.0 °F 5.1 °F 1019.9 in Calm     88 % 0.0 in
04:22 6.7 °F 4.9 °F 1019.9 in Calm     88 % 0.0 in
04:27 6.4 °F 4.7 °F 1019.9 in Calm     89 % 0.0 in
04:32 6.2 °F 4.7 °F 1019.9 in Calm   1.6 mph 90 % 0.0 in
04:37 6.2 °F 4.8 °F 1019.9 in Calm   1.6 mph 91 % 0.0 in
04:42 6.2 °F 5.0 °F 1019.9 in South 1.6 mph 1.6 mph 92 % 0.0 in
04:47 6.3 °F 5.1 °F 1019.9 in Calm   3.2 mph 92 % 0.0 in
04:52 6.3 °F 5.1 °F 1019.9 in Calm   3.2 mph 92 % 0.0 in
05:02 6.1 °F 4.9 °F 1019.9 in Calm   3.2 mph 92 % 0.0 in
05:12 5.8 °F 4.6 °F 1019.9 in Calm   1.6 mph 92 % 0.0 in
05:17 5.7 °F 4.5 °F 1019.9 in Calm   1.6 mph 92 % 0.0 in
05:22 5.6 °F 4.4 °F 1019.9 in Calm   1.6 mph 92 % 0.0 in
05:32 5.5 °F 4.5 °F 1019.9 in Calm   1.6 mph 93 % 0.0 in
05:37 5.7 °F 4.8 °F 1019.9 in South 1.6 mph   94 % 0.0 in
05:42 5.7 °F 4.7 °F 1019.9 in South 1.6 mph   93 % 0.0 in
05:47 5.6 °F 4.6 °F 1019.9 in Calm   3.2 mph 93 % 0.0 in
05:52 5.6 °F 4.6 °F 1019.9 in Calm   3.2 mph 93 % 0.0 in
06:02 5.3 °F 4.3 °F 1019.9 in Calm   3.2 mph 93 % 0.0 in
06:12 5.3 °F 4.4 °F 1019.9 in SW 1.6 mph 3.2 mph 94 % 0.0 in
06:17 5.3 °F 4.4 °F 1020.2 in Calm   3.2 mph 94 % 0.0 in
06:22 5.1 °F 4.2 °F 1019.9 in Calm   3.2 mph 94 % 0.0 in
06:27 4.9 °F 4.0 °F 1019.9 in Calm   3.2 mph 94 % 0.0 in
06:32 4.9 °F 4.0 °F 1019.9 in SSE 1.6 mph 3.2 mph 94 % 0.0 in
06:42 4.9 °F 4.0 °F 1020.2 in Calm   3.2 mph 94 % 0.0 in
06:52 4.9 °F 4.2 °F 1020.2 in Calm   1.6 mph 95 % 0.0 in
07:02 4.9 °F 4.2 °F 1020.5 in Calm     95 % 0.0 in
07:12 5.0 °F 4.3 °F 1020.5 in Calm     95 % 0.0 in
07:17 5.1 °F 4.4 °F 1020.5 in Calm     95 % 0.0 in
07:22 5.3 °F 4.6 °F 1020.5 in Calm     95 % 0.0 in
07:32 5.6 °F 4.9 °F 1020.5 in WNW 3.2 mph   95 % 0.0 in
07:37 5.4 °F 4.7 °F 1020.5 in Calm   3.2 mph 95 % 0.0 in
07:42 4.7 °F 3.7 °F 1020.5 in North 3.2 mph 3.2 mph 93 % 0.0 in
07:52 5.2 °F 4.5 °F 1020.9 in Calm   12.9 mph 95 % 0.0 in
07:57 5.6 °F 4.9 °F 1020.5 in Calm   8.0 mph 95 % 0.0 in
08:02 5.9 °F 5.2 °F 1021.2 in Calm   6.4 mph 95 % 0.0 in
08:07 6.0 °F 5.1 °F 1021.2 in North 1.6 mph 4.8 mph 94 % 0.0 in
08:12 6.2 °F 5.3 °F 1021.2 in Calm   4.8 mph 94 % 0.0 in
08:17 6.4 °F 5.5 °F 1020.9 in Calm   3.2 mph 94 % 0.0 in
08:22 6.7 °F 5.8 °F 1021.2 in North 1.6 mph 3.2 mph 94 % 0.0 in
08:32 7.7 °F 6.8 °F 1021.2 in Calm   3.2 mph 94 % 0.0 in
08:42 8.2 °F 7.0 °F 1021.2 in Calm   3.2 mph 92 % 0.0 in
08:52 8.8 °F 7.4 °F 1021.6 in Calm     91 % 0.0 in
08:57 9.2 °F 7.8 °F 1021.2 in Calm   4.8 mph 91 % 0.0 in
09:02 9.4 °F 7.7 °F 1021.6 in Calm   4.8 mph 89 % 0.0 in
09:12 9.4 °F 7.8 °F 1021.6 in North 4.8 mph 4.8 mph 90 % 0.0 in
09:17 9.3 °F 7.9 °F 1021.6 in NNE 6.4 mph 8.0 mph 91 % 0.0 in
09:22 9.2 °F 7.8 °F 1021.6 in NNW 11.3 mph 11.3 mph 91 % 0.0 in
09:32 8.9 °F 7.5 °F 1021.6 in NNW 4.8 mph 11.3 mph 91 % 0.0 in
09:37 8.8 °F 7.4 °F 1021.9 in NNW 11.3 mph 11.3 mph 91 % 0.0 in
09:42 8.4 °F 7.2 °F 1021.9 in WNW 3.2 mph 11.3 mph 92 % 0.0 in
09:52 7.8 °F 6.7 °F 1021.9 in NNW 9.7 mph 14.5 mph 93 % 0.0 in
10:02 7.4 °F 6.5 °F 1022.2 in North 17.7 mph 22.5 mph 94 % 0.0 in
10:12 7.4 °F 6.7 °F 1022.2 in North 12.9 mph 22.5 mph 95 % 0.0 in
10:17 7.5 °F 6.8 °F 1022.2 in NW 8.0 mph 24.1 mph 95 % 0.0 in
10:22 7.6 °F 6.9 °F 1022.2 in NW 9.7 mph 24.1 mph 95 % 0.0 in
10:32 7.8 °F 7.0 °F 1022.2 in NNW 8.0 mph 16.1 mph 95 % 0.0 in
10:37 7.8 °F 6.9 °F 1022.2 in NNE 6.4 mph 14.5 mph 94 % 0.0 in
10:42 7.9 °F 7.0 °F 1022.6 in NNW 8.0 mph 14.5 mph 94 % 0.0 in
10:52 8.1 °F 7.2 °F 1022.6 in WNW 3.2 mph 12.9 mph 94 % 0.0 in
10:57 8.2 °F 7.3 °F 1022.6 in Calm   14.5 mph 94 % 0.0 in
11:02 8.2 °F 7.1 °F 1022.6 in NNW 3.2 mph 14.5 mph 93 % 0.0 in
11:12 8.4 °F 7.3 °F 1022.2 in NNW 4.8 mph 14.5 mph 93 % 0.0 in
11:17 8.4 °F 7.3 °F 1022.2 in North 3.2 mph 8.0 mph 93 % 0.0 in
11:22 8.5 °F 7.4 °F 1022.6 in North 6.4 mph 8.0 mph 93 % 0.0 in
11:27 8.5 °F 7.4 °F 1022.6 in NNE 8.0 mph 8.0 mph 93 % 0.0 in
11:32 8.5 °F 7.4 °F 1022.6 in Calm   9.7 mph 93 % 0.0 in
11:42 8.5 °F 7.4 °F 1022.6 in NNW 6.4 mph 9.7 mph 93 % 0.0 in
11:47 8.5 °F 7.4 °F 1022.6 in NNW 4.8 mph 12.9 mph 93 % 0.0 in
11:52 8.5 °F 7.4 °F 1022.6 in NNW 6.4 mph 12.9 mph 93 % 0.0 in
11:57 8.5 °F 7.4 °F 1022.6 in NNW 6.4 mph 9.7 mph 93 % 0.0 in
12:02 8.5 °F 7.4 °F 1022.6 in NW 3.2 mph 9.7 mph 93 % 0.0 in
12:07 8.6 °F 7.5 °F 1022.6 in NW 1.6 mph 8.0 mph 93 % 0.0 in
12:12 8.7 °F 7.6 °F 1022.6 in Calm   8.0 mph 93 % 0.0 in
12:17 8.7 °F 7.6 °F 1022.6 in WNW 4.8 mph 8.0 mph 93 % 0.0 in
12:22 8.7 °F 7.5 °F 1022.6 in NW 1.6 mph 8.0 mph 92 % 0.0 in
12:32 8.8 °F 7.6 °F 1022.6 in WNW 4.8 mph 11.3 mph 92 % 0.0 in
12:42 9.1 °F 7.9 °F 1022.2 in NNE 6.4 mph 11.3 mph 92 % 0.0 in
12:47 9.2 °F 8.0 °F 1022.6 in NNW 8.0 mph 11.3 mph 92 % 0.0 in
12:52 9.3 °F 7.9 °F 1022.6 in NNW 6.4 mph 11.3 mph 91 % 0.0 in
12:57 9.3 °F 7.9 °F 1022.6 in NW 6.4 mph 11.3 mph 91 % 0.0 in
13:02 9.4 °F 8.0 °F 1022.9 in NW 6.4 mph 11.3 mph 91 % 0.0 in
13:12 9.8 °F 8.2 °F 1022.9 in NNW 6.4 mph 9.7 mph 90 % 0.0 in
13:17 9.7 °F 8.1 °F 1022.9 in NW 4.8 mph 9.7 mph 90 % 0.0 in
13:22 9.6 °F 8.0 °F 1022.9 in West 6.4 mph 9.7 mph 90 % 0.0 in
13:27 9.6 °F 8.0 °F 1022.9 in NW 6.4 mph 11.3 mph 90 % 0.0 in
13:32 9.5 °F 7.9 °F 1022.6 in NW 1.6 mph 12.9 mph 90 % 0.0 in
13:37 9.6 °F 8.2 °F 1022.9 in NNW 3.2 mph 12.9 mph 91 % 0.0 in
13:42 9.6 °F 8.2 °F 1022.9 in NW 3.2 mph 9.7 mph 91 % 0.0 in
13:47 9.6 °F 8.0 °F 1022.6 in NW 3.2 mph 9.7 mph 90 % 0.0 in
13:52 9.7 °F 8.1 °F 1022.6 in NW 6.4 mph 9.7 mph 90 % 0.0 in
14:02 9.7 °F 8.1 °F 1022.6 in WNW 12.9 mph 12.9 mph 90 % 0.0 in
14:07 9.8 °F 8.1 °F 1022.2 in WNW 8.0 mph 14.5 mph 89 % 0.0 in
14:12 9.8 °F 8.1 °F 1022.2 in NNW 3.2 mph 14.5 mph 89 % 0.0 in
14:17 9.8 °F 8.1 °F 1022.2 in WNW 6.4 mph 14.5 mph 89 % 0.0 in
14:22 9.9 °F 8.2 °F 1022.2 in NW 6.4 mph 11.3 mph 89 % 0.0 in
14:32 9.8 °F 7.9 °F 1021.9 in WNW 3.2 mph 12.9 mph 88 % 0.0 in
14:42 10.2 °F 8.3 °F 1021.9 in NNW 3.2 mph 9.7 mph 88 % 0.0 in
14:47 10.3 °F 8.2 °F 1021.9 in WNW 3.2 mph 6.4 mph 87 % 0.0 in
14:52 10.6 °F 8.7 °F 1021.9 in West 8.0 mph 8.0 mph 88 % 0.0 in
15:02 10.8 °F 8.2 °F 1021.6 in WNW 3.2 mph 9.7 mph 84 % 0.0 in
15:07 11.0 °F 8.4 °F 1021.9 in West 1.6 mph 9.7 mph 84 % 0.0 in
15:12 11.1 °F 8.5 °F 1021.6 in North 1.6 mph 6.4 mph 84 % 0.0 in
15:17 11.1 °F 8.5 °F 1021.6 in North 1.6 mph 6.4 mph 84 % 0.0 in
15:22 11.1 °F 8.3 °F 1021.6 in Calm   6.4 mph 83 % 0.0 in
15:27 11.2 °F 8.6 °F 1021.2 in WNW 1.6 mph 6.4 mph 84 % 0.0 in
15:32 11.3 °F 8.5 °F 1021.6 in Calm   6.4 mph 83 % 0.0 in
15:37 11.3 °F 8.3 °F 1021.6 in NW 3.2 mph 8.0 mph 82 % 0.0 in
15:42 11.3 °F 8.5 °F 1021.6 in NNW 4.8 mph 8.0 mph 83 % 0.0 in
15:47 11.1 °F 8.3 °F 1021.6 in NNW 3.2 mph 9.7 mph 83 % 0.0 in
15:57 11.1 °F 8.5 °F 1021.6 in NW 8.0 mph 12.9 mph 84 % 0.0 in
16:02 11.0 °F 8.4 °F 1021.6 in NW 1.6 mph 12.9 mph 84 % 0.0 in
16:07 11.0 °F 8.4 °F 1021.6 in WNW 1.6 mph 11.3 mph 84 % 0.0 in
16:17 11.1 °F 8.3 °F 1021.9 in NNW 4.8 mph 11.3 mph 83 % 0.0 in
16:22 11.1 °F 8.5 °F 1021.6 in North 3.2 mph 11.3 mph 84 % 0.0 in
16:27 11.2 °F 8.4 °F 1021.6 in NNE 8.0 mph 11.3 mph 83 % 0.0 in
16:32 11.2 °F 8.4 °F 1021.9 in NNW 3.2 mph 11.3 mph 83 % 0.0 in
16:37 11.3 °F 8.5 °F 1021.9 in NW 1.6 mph 11.3 mph 83 % 0.0 in
16:42 11.3 °F 8.3 °F 1021.9 in NNW 1.6 mph 11.3 mph 82 % 0.0 in
16:47 11.3 °F 8.5 °F 1021.6 in NE 3.2 mph 9.7 mph 83 % 0.0 in
16:52 11.2 °F 8.2 °F 1021.9 in WNW 4.8 mph 12.9 mph 82 % 0.0 in
16:57 11.2 °F 8.2 °F 1021.9 in NNW 6.4 mph 12.9 mph 82 % 0.0 in
17:02 11.2 °F 8.2 °F 1021.6 in NW 1.6 mph 12.9 mph 82 % 0.0 in
17:07 11.2 °F 8.1 °F 1021.6 in NW 4.8 mph 11.3 mph 81 % 0.0 in
17:12 11.1 °F 8.0 °F 1021.6 in NNW 8.0 mph 14.5 mph 81 % 0.0 in
17:17 11.1 °F 7.8 °F 1021.6 in NNE 8.0 mph 14.5 mph 80 % 0.0 in
17:22 11.1 °F 8.0 °F 1021.6 in NW 3.2 mph 14.5 mph 81 % 0.0 in
17:27 11.1 °F 7.8 °F 1021.6 in NNW 4.8 mph 14.5 mph 80 % 0.0 in
17:32 11.1 °F 7.8 °F 1021.6 in NW 6.4 mph 12.9 mph 80 % 0.0 in
17:37 11.1 °F 7.6 °F 1021.6 in NW 9.7 mph 12.9 mph 79 % 0.0 in
17:42 11.1 °F 7.6 °F 1021.6 in NW 8.0 mph 11.3 mph 79 % 0.0 in
17:47 11.1 °F 7.8 °F 1021.6 in North 4.8 mph 11.3 mph 80 % 0.0 in
17:52 11.1 °F 7.8 °F 1021.9 in NNW 4.8 mph 11.3 mph 80 % 0.0 in
17:57 10.9 °F 7.6 °F 1021.9 in North 11.3 mph 11.3 mph 80 % 0.0 in
18:02 10.7 °F 7.6 °F 1021.9 in North 9.7 mph 17.7 mph 81 % 0.0 in
18:07 10.6 °F 7.5 °F 1021.6 in North 8.0 mph 17.7 mph 81 % 0.0 in
18:12 10.4 °F 7.5 °F 1021.6 in NNW 4.8 mph 17.7 mph 82 % 0.0 in
18:17 10.3 °F 7.4 °F 1021.6 in NNW 3.2 mph 17.7 mph 82 % 0.0 in
18:22 10.3 °F 7.4 °F 1021.9 in NNW 1.6 mph 16.1 mph 82 % 0.0 in
18:32 10.2 °F 7.3 °F 1021.9 in WNW 3.2 mph 12.9 mph 82 % 0.0 in
18:42 10.1 °F 7.2 °F 1021.9 in West 4.8 mph 9.7 mph 82 % 0.0 in
18:47 9.9 °F 6.8 °F 1021.6 in NNE 6.4 mph 9.7 mph 81 % 0.0 in
18:52 9.8 °F 6.7 °F 1021.6 in WNW 1.6 mph 8.0 mph 81 % 0.0 in
18:57 9.7 °F 6.6 °F 1021.6 in NNW 1.6 mph 8.0 mph 81 % 0.0 in
19:02 9.6 °F 6.7 °F 1021.6 in Calm   8.0 mph 82 % 0.0 in
19:07 9.4 °F 6.5 °F 1021.6 in NW 1.6 mph 4.8 mph 82 % 0.0 in
19:12 9.3 °F 6.4 °F 1021.6 in WNW 1.6 mph 3.2 mph 82 % 0.0 in
19:17 9.1 °F 6.4 °F 1021.6 in Calm   3.2 mph 83 % 0.0 in
19:22 8.9 °F 6.3 °F 1021.6 in Calm   3.2 mph 84 % 0.0 in
19:27 8.8 °F 6.2 °F 1021.6 in Calm   1.6 mph 84 % 0.0 in
19:32 8.7 °F 6.1 °F 1021.6 in Calm     84 % 0.0 in
19:37 8.3 °F 5.8 °F 1021.6 in Calm   1.6 mph 84 % 0.0 in
19:42 8.2 °F 6.0 °F 1021.6 in Calm   1.6 mph 86 % 0.0 in
19:52 8.2 °F 6.0 °F 1021.2 in Calm   1.6 mph 86 % 0.0 in
19:57 8.1 °F 5.9 °F 1021.2 in Calm   1.6 mph 86 % 0.0 in
20:02 8.1 °F 6.1 °F 1021.2 in Calm   1.6 mph 87 % 0.0 in
20:12 8.0 °F 6.1 °F 1021.6 in Calm     88 % 0.0 in
20:17 7.9 °F 6.0 °F 1021.6 in Calm     88 % 0.0 in
20:22 8.1 °F 6.2 °F 1021.6 in Calm     88 % 0.0 in
20:27 7.7 °F 5.7 °F 1021.6 in Calm     87 % 0.0 in
20:32 7.4 °F 5.7 °F 1021.6 in Calm     89 % 0.0 in
20:37 7.4 °F 5.9 °F 1021.6 in Calm     90 % 0.0 in
20:42 7.5 °F 6.0 °F 1021.6 in Calm     90 % 0.0 in
20:47 7.6 °F 6.1 °F 1021.6 in West 1.6 mph 4.8 mph 90 % 0.0 in
20:52 7.7 °F 6.0 °F 1021.6 in West 1.6 mph 4.8 mph 89 % 0.0 in
20:57 7.6 °F 5.9 °F 1021.6 in Calm   4.8 mph 89 % 0.0 in
21:02 7.6 °F 6.1 °F 1021.6 in WSW 1.6 mph 3.2 mph 90 % 0.0 in
21:07 7.6 °F 6.1 °F 1021.6 in WNW 3.2 mph 3.2 mph 90 % 0.0 in
21:12 7.9 °F 6.4 °F 1021.6 in WNW 3.2 mph 3.2 mph 90 % 0.0 in
21:17 8.1 °F 6.4 °F 1021.6 in WNW 4.8 mph 4.8 mph 89 % 0.0 in
21:22 8.2 °F 6.3 °F 1021.9 in West 3.2 mph 4.8 mph 88 % 0.0 in
21:27 8.4 °F 6.5 °F 1021.9 in WNW 3.2 mph 4.8 mph 88 % 0.0 in
21:32 8.5 °F 6.5 °F 1021.9 in WNW 3.2 mph 4.8 mph 87 % 0.0 in
21:42 8.6 °F 6.4 °F 1021.9 in WSW 1.6 mph 4.8 mph 86 % 0.0 in
21:47 8.6 °F 6.4 °F 1021.9 in West 3.2 mph 3.2 mph 86 % 0.0 in
21:57 8.7 °F 6.3 °F 1021.9 in West 4.8 mph 4.8 mph 85 % 0.0 in
22:02 8.8 °F 6.2 °F 1021.9 in West 3.2 mph 11.3 mph 84 % 0.0 in
22:07 8.8 °F 6.1 °F 1021.9 in WNW 11.3 mph 11.3 mph 83 % 0.0 in
22:12 8.8 °F 5.9 °F 1021.9 in West 4.8 mph 12.9 mph 82 % 0.0 in
22:17 8.8 °F 5.9 °F 1021.9 in WSW 6.4 mph 12.9 mph 82 % 0.0 in
22:27 8.6 °F 5.7 °F 1022.2 in West 3.2 mph 11.3 mph 82 % 0.0 in
22:32 8.6 °F 5.7 °F 1021.9 in West 3.2 mph 9.7 mph 82 % 0.0 in
22:42 8.3 °F 5.4 °F 1021.9 in West 3.2 mph 8.0 mph 82 % 0.0 in
22:47 8.2 °F 5.3 °F 1021.9 in West 1.6 mph 8.0 mph 82 % 0.0 in
22:52 8.1 °F 5.2 °F 1021.9 in WSW 1.6 mph 6.4 mph 82 % 0.0 in
22:57 8.1 °F 5.2 °F 1021.6 in SW 1.6 mph 4.8 mph 82 % 0.0 in
23:02 8.1 °F 5.2 °F 1021.6 in SW 3.2 mph 4.8 mph 82 % 0.0 in
23:07 8.1 °F 5.2 °F 1021.6 in SW 1.6 mph 8.0 mph 82 % 0.0 in
23:12 8.0 °F 5.1 °F 1021.6 in WSW 4.8 mph 6.4 mph 82 % 0.0 in
23:17 8.0 °F 4.9 °F 1021.6 in SW 3.2 mph 6.4 mph 81 % 0.0 in
23:22 7.9 °F 5.0 °F 1021.6 in WSW 1.6 mph 6.4 mph 82 % 0.0 in
23:27 7.8 °F 4.9 °F 1021.6 in West 3.2 mph 6.4 mph 82 % 0.0 in
23:32 7.7 °F 4.8 °F 1021.9 in SW 1.6 mph 6.4 mph 82 % 0.0 in
23:37 7.7 °F 5.0 °F 1021.6 in Calm   6.4 mph 83 % 0.0 in
23:42 7.6 °F 4.9 °F 1021.6 in Calm   4.8 mph 83 % 0.0 in
23:47 7.5 °F 4.8 °F 1021.6 in West 3.2 mph 8.0 mph 83 % 0.0 in
23:52 7.4 °F 4.7 °F 1021.6 in WSW 6.4 mph 8.0 mph 83 % 0.0 in
23:57 7.4 °F 4.9 °F 1021.6 in WSW 6.4 mph 8.0 mph 84 % 0.0 in
Meteo18
Compliments of Weather Underground - 4 mb

Script developed by  Jim McMurry - jmcmurry@mwt.net Adapted for the template by  Wim van der Kuil - Leuven-Template.eu

You find our weather info also at:

European Weather Network

Weather Underground

Equipment we use:

Weather-station
Davis Vue

Weather-program
Meteobridge

Weather-server
Raspberry PI 2 B+

Provider
1 and 1

Davis Vue

Meteobridge

Raspberry PI 2 B+

1 and 1